createdAt,value
2022-08-27T00:03:15.730Z,98676.19
2022-08-27T00:08:20.144Z,98673.53
2022-08-27T00:13:23.148Z,98677.50
2022-08-27T00:18:26.398Z,98662.84
2022-08-27T00:23:31.709Z,98663.47
2022-08-27T00:28:35.872Z,98673.03
2022-08-27T00:33:38.887Z,98678.69
2022-08-27T00:38:43.406Z,98681.50
2022-08-27T00:43:49.692Z,98675.88
2022-08-27T00:48:54.644Z,98676.41
2022-08-27T00:54:00.158Z,98682.88
2022-08-27T00:59:04.151Z,98687.13
2022-08-27T01:04:07.278Z,98675.34
2022-08-27T01:09:18.111Z,98673.59
2022-08-27T01:14:21.239Z,98669.81
2022-08-27T01:19:30.229Z,98684.34
2022-08-27T01:24:37.761Z,98676.59
2022-08-27T01:29:41.268Z,98685.53
2022-08-27T01:34:45.163Z,98682.59
2022-08-27T01:39:49.602Z,98675.00
2022-08-27T01:44:55.735Z,98677.38
2022-08-27T01:49:58.766Z,98667.59
2022-08-27T01:55:03.412Z,98661.41
2022-08-27T02:00:09.509Z,98659.66
2022-08-27T02:05:39.322Z,98660.31
2022-08-27T02:10:51.484Z,98666.19
2022-08-27T02:15:55.100Z,98666.34
2022-08-27T02:20:58.166Z,98666.75
2022-08-27T02:26:02.690Z,98659.84
2022-08-27T02:31:06.237Z,98652.84
2022-08-27T02:36:09.759Z,98643.47
2022-08-27T02:41:14.383Z,98645.72
2022-08-27T02:46:17.412Z,98641.09
2022-08-27T02:51:20.465Z,98630.00
2022-08-27T02:56:24.845Z,98629.28
2022-08-27T03:01:28.162Z,98639.88
2022-08-27T03:06:31.800Z,98638.81
2022-08-27T03:11:36.171Z,98642.47
2022-08-27T03:16:39.815Z,98645.09
2022-08-27T03:21:42.965Z,98644.63
2022-08-27T03:26:59.274Z,98646.41
2022-08-27T03:32:02.584Z,98646.75
2022-08-27T03:37:05.776Z,98651.34
2022-08-27T03:42:10.557Z,98644.03
2022-08-27T03:47:13.576Z,98659.44
2022-08-27T03:52:17.101Z,98658.53
2022-08-27T03:57:21.586Z,98657.84
2022-08-27T04:02:24.779Z,98665.75
2022-08-27T04:07:28.208Z,98668.97
2022-08-27T04:12:32.642Z,98661.53
2022-08-27T04:17:35.688Z,98663.78
2022-08-27T04:22:39.477Z,98668.28
2022-08-27T04:27:44.495Z,98662.28
2022-08-27T04:32:47.549Z,98664.09
2022-08-27T04:37:50.628Z,98664.44
2022-08-27T04:42:55.588Z,98677.09
2022-08-27T04:47:58.592Z,98678.19
2022-08-27T04:53:02.143Z,98668.41
2022-08-27T04:58:08.921Z,98666.53
2022-08-27T05:03:12.007Z,98664.34
2022-08-27T05:08:15.354Z,98665.44
2022-08-27T05:13:21.418Z,98655.75
2022-08-27T05:18:24.448Z,98652.81
2022-08-27T05:23:28.150Z,98653.66
2022-08-27T05:28:32.495Z,98658.84
2022-08-27T05:33:35.715Z,98655.75
2022-08-27T05:38:38.723Z,98653.09
2022-08-27T05:43:49.119Z,98661.91
2022-08-27T05:48:58.183Z,98642.66
2022-08-27T05:54:08.041Z,98653.72
2022-08-27T05:59:30.541Z,98662.53
2022-08-27T06:04:33.546Z,98665.13
2022-08-27T06:09:36.935Z,98671.75
2022-08-27T06:14:41.367Z,98669.81
2022-08-27T06:19:45.837Z,98672.97
2022-08-27T06:24:48.856Z,98677.50
2022-08-27T06:29:53.319Z,98682.50
2022-08-27T06:34:56.534Z,98688.59
2022-08-27T06:39:59.638Z,98684.81
2022-08-27T06:45:04.366Z,98681.59
2022-08-27T06:50:08.124Z,98688.59
2022-08-27T06:55:11.962Z,98686.16
2022-08-27T07:00:16.861Z,98701.44
2022-08-27T07:05:20.077Z,98697.22
2022-08-27T07:10:23.155Z,98703.25
2022-08-27T07:15:28.018Z,98712.13
2022-08-27T07:20:35.107Z,98720.91
2022-08-27T07:25:38.186Z,98713.78
2022-08-27T07:30:42.973Z,98713.19
2022-08-27T07:35:47.078Z,98704.34
2022-08-27T07:40:52.365Z,98700.78
2022-08-27T07:45:58.260Z,98717.72
2022-08-27T07:51:03.383Z,98720.69
2022-08-27T07:56:07.970Z,98730.34
2022-08-27T08:01:12.612Z,98739.47
2022-08-27T08:06:17.764Z,98742.56
2022-08-27T08:11:21.507Z,98733.94
2022-08-27T08:16:31.473Z,98730.22
2022-08-27T08:21:35.362Z,98735.09
2022-08-27T08:26:38.341Z,98739.13
2022-08-27T08:31:43.286Z,98736.75
2022-08-27T08:36:54.665Z,98744.59
2022-08-27T08:42:00.333Z,98753.59
2022-08-27T08:47:10.549Z,98752.22
2022-08-27T08:52:31.543Z,98743.72
2022-08-27T08:57:40.475Z,98747.97
2022-08-27T09:02:52.355Z,98759.44
2022-08-27T09:08:28.407Z,98754.22
2022-08-27T09:13:28.860Z,98755.81
2022-08-27T09:18:37.029Z,98758.03
2022-08-27T09:23:52.530Z,98759.50
2022-08-27T09:29:22.743Z,98762.00
2022-08-27T09:34:34.782Z,98758.31
2022-08-27T09:39:46.971Z,98765.69
2022-08-27T09:44:53.568Z,98766.25
2022-08-27T09:50:09.878Z,98766.31
2022-08-27T09:55:13.081Z,98770.69
2022-08-27T10:00:19.635Z,98767.63
2022-08-27T10:05:29.662Z,98765.97
2022-08-27T10:10:54.045Z,98773.72
2022-08-27T10:16:16.155Z,98776.72
2022-08-27T10:21:30.821Z,98769.81
2022-08-27T10:26:45.708Z,98761.19
2022-08-27T10:31:59.740Z,98767.94
2022-08-27T10:37:19.669Z,98762.88
2022-08-27T10:42:29.584Z,98768.63
2022-08-27T10:47:56.617Z,98773.78
2022-08-27T10:53:07.243Z,98767.94
2022-08-27T10:58:27.610Z,98779.63
2022-08-27T11:03:37.374Z,98781.72
2022-08-27T11:08:50.998Z,98777.34
2022-08-27T11:14:01.202Z,98778.44
2022-08-27T11:19:14.019Z,98773.13
2022-08-27T11:24:30.891Z,98775.34
2022-08-27T11:29:45.647Z,98779.97
2022-08-27T11:34:55.999Z,98780.53
2022-08-27T11:40:20.910Z,98774.13
2022-08-27T11:45:30.924Z,98776.44
2022-08-27T11:50:34.069Z,98777.34
2022-08-27T11:55:40.628Z,98776.88
2022-08-27T12:00:44.469Z,98777.47
2022-08-27T12:05:49.865Z,98775.91
2022-08-27T12:11:21.336Z,98771.47
2022-08-27T12:16:35.397Z,98764.28
2022-08-27T12:21:50.618Z,98763.28
2022-08-27T12:27:01.163Z,98763.97
2022-08-27T12:32:12.612Z,98765.63
2022-08-27T12:37:15.913Z,98760.94
2022-08-27T12:42:23.422Z,98758.16
2022-08-27T12:47:27.219Z,98761.28
2022-08-27T12:52:46.317Z,98765.53
2022-08-27T12:58:01.515Z,98767.19
2022-08-27T13:03:27.645Z,98757.00
2022-08-27T13:08:32.903Z,98755.00
2022-08-27T13:13:37.572Z,98757.41
2022-08-27T13:18:41.549Z,98753.03
2022-08-27T13:23:55.217Z,98754.50
2022-08-27T13:29:03.532Z,98760.78
2022-08-27T13:34:08.196Z,98762.81
2022-08-27T13:39:11.281Z,98760.09
2022-08-27T13:44:20.297Z,98748.66
2022-08-27T13:49:25.762Z,98752.84
2022-08-27T13:54:29.548Z,98751.38
2022-08-27T13:59:33.972Z,98756.00
2022-08-27T14:04:39.971Z,98760.25
2022-08-27T14:09:51.303Z,98756.44
2022-08-27T14:15:00.554Z,98760.94
2022-08-27T14:20:06.646Z,98761.53
2022-08-27T14:25:13.237Z,98766.69
2022-08-27T14:30:19.741Z,98765.34
2022-08-27T14:35:28.423Z,98774.22
2022-08-27T14:40:31.660Z,98769.59
2022-08-27T14:45:39.681Z,98773.53
2022-08-27T14:50:43.549Z,98772.66
2022-08-27T14:55:51.552Z,98774.06
2022-08-27T15:00:57.789Z,98766.91
2022-08-27T15:06:00.822Z,98777.91
2022-08-27T15:11:03.962Z,98776.19
2022-08-27T15:16:08.562Z,98774.88
2022-08-27T15:21:11.732Z,98773.19
2022-08-27T15:26:14.869Z,98772.09
2022-08-27T15:31:19.662Z,98772.53
2022-08-27T15:36:22.782Z,98769.72
2022-08-27T15:41:29.123Z,98764.13
2022-08-27T15:46:34.234Z,98767.28
2022-08-27T15:51:38.168Z,98760.16
2022-08-27T15:56:41.206Z,98757.19
2022-08-27T16:01:45.764Z,98764.91
2022-08-27T16:06:49.766Z,98757.41
2022-08-27T16:11:52.826Z,98759.06
2022-08-27T16:16:58.702Z,98756.31
2022-08-27T16:22:01.684Z,98745.13
2022-08-27T16:27:05.179Z,98757.47
2022-08-27T16:32:14.435Z,98746.81
2022-08-27T16:37:17.595Z,98751.94
2022-08-27T16:42:22.010Z,98747.69
2022-08-27T16:47:26.512Z,98755.97
2022-08-27T16:52:30.155Z,98759.94
2022-08-27T16:57:33.128Z,98758.84
2022-08-27T17:02:38.061Z,98763.72
2022-08-27T17:07:41.108Z,98770.81
2022-08-27T17:12:48.583Z,98772.41
2022-08-27T17:17:52.942Z,98775.38
2022-08-27T17:22:56.685Z,98785.13
2022-08-27T17:28:00.589Z,98790.03
2022-08-27T17:33:05.394Z,98796.53
2022-08-27T17:38:09.680Z,98803.44
2022-08-27T17:43:12.729Z,98801.78
2022-08-27T17:48:18.048Z,98806.41
2022-08-27T17:53:22.420Z,98816.34
2022-08-27T17:58:26.189Z,98811.53
2022-08-27T18:03:30.636Z,98813.47
2022-08-27T18:08:50.603Z,98822.22
2022-08-27T18:13:56.438Z,98829.03
2022-08-27T18:19:00.857Z,98832.00
2022-08-27T18:24:07.267Z,98833.22
2022-08-27T18:29:11.049Z,98831.13
2022-08-27T18:34:20.065Z,98846.72
2022-08-27T18:39:25.667Z,98854.25
2022-08-27T18:44:29.080Z,98853.59
2022-08-27T18:49:33.937Z,98858.72
2022-08-27T18:54:37.096Z,98847.81
2022-08-27T18:59:40.312Z,98858.34
2022-08-27T19:04:45.874Z,98868.38
2022-08-27T19:09:49.050Z,98859.88
2022-08-27T19:14:52.347Z,98873.81
2022-08-27T19:19:57.714Z,98879.66
2022-08-27T19:25:01.063Z,98878.03
2022-08-27T19:30:04.625Z,98888.06
2022-08-27T19:35:11.221Z,98899.25
2022-08-27T19:40:16.006Z,98885.16
2022-08-27T19:45:21.951Z,98891.91
2022-08-27T19:50:27.890Z,98880.69
2022-08-27T19:55:31.051Z,98891.34
2022-08-27T20:00:34.163Z,98876.16
2022-08-27T20:05:39.423Z,98887.13
2022-08-27T20:10:42.843Z,98880.69
2022-08-27T20:15:46.184Z,98883.84
2022-08-27T20:20:52.599Z,98883.16
2022-08-27T20:26:01.101Z,98884.06
2022-08-27T20:31:04.594Z,98888.25
2022-08-27T20:36:09.782Z,98879.09
2022-08-27T20:41:12.800Z,98894.63
2022-08-27T20:46:16.363Z,98888.13
2022-08-27T20:51:21.093Z,98893.41
2022-08-27T20:56:24.216Z,98888.03
2022-08-27T21:01:27.431Z,98884.75
2022-08-27T21:06:33.592Z,98893.97
2022-08-27T21:11:36.669Z,98885.41
2022-08-27T21:16:39.706Z,98888.69
2022-08-27T21:21:44.190Z,98889.84
2022-08-27T21:26:47.611Z,98894.84
2022-08-27T21:31:51.744Z,98901.19
2022-08-27T21:36:56.202Z,98899.81
2022-08-27T21:42:00.725Z,98899.56
2022-08-27T21:47:03.971Z,98893.75
2022-08-27T21:52:08.543Z,98897.56
2022-08-27T21:57:14.878Z,98890.34
2022-08-27T22:02:38.860Z,98891.41
2022-08-27T22:07:44.013Z,98886.56
2022-08-27T22:12:47.221Z,98891.41
2022-08-27T22:17:51.399Z,98884.47
2022-08-27T22:22:57.083Z,98886.03
2022-08-27T22:28:00.140Z,98891.06
2022-08-27T22:33:03.212Z,98884.44
2022-08-27T22:38:08.204Z,98881.84
2022-08-27T22:43:12.103Z,98877.56
2022-08-27T22:48:15.208Z,98890.88
2022-08-27T22:53:19.628Z,98891.69
2022-08-27T22:58:24.381Z,98890.59
2022-08-27T23:03:28.276Z,98902.53
2022-08-27T23:08:32.688Z,98906.53
2022-08-27T23:13:35.775Z,98896.63
2022-08-27T23:18:39.879Z,98900.91
2022-08-27T23:23:44.335Z,98901.75
2022-08-27T23:28:47.626Z,98906.03
2022-08-27T23:33:53.684Z,98904.69
2022-08-27T23:38:58.617Z,98908.69
2022-08-27T23:44:01.980Z,98911.06
2022-08-27T23:49:05.374Z,98905.19
2022-08-27T23:54:10.171Z,98906.50
2022-08-27T23:59:13.196Z,98911.53
